sensor_id;sensor_type;location;lat;lon;timestamp;P1;durP1;ratioP1;P2;durP2;ratioP2
68858;SDS011;55864;49.238;8.092;2023-05-10T00:00:59;1.52;;;1.00;;
68858;SDS011;55864;49.238;8.092;2023-05-10T00:02:59;3.25;;;1.40;;
68858;SDS011;55864;49.238;8.092;2023-05-10T00:05:00;2.58;;;1.27;;
68858;SDS011;55864;49.238;8.092;2023-05-10T00:07:02;5.40;;;1.40;;
68858;SDS011;55864;49.238;8.092;2023-05-10T00:09:03;3.65;;;1.30;;
68858;SDS011;55864;49.238;8.092;2023-05-10T00:11:03;2.40;;;1.10;;
68858;SDS011;55864;49.238;8.092;2023-05-10T00:13:04;2.70;;;1.30;;
68858;SDS011;55864;49.238;8.092;2023-05-10T00:15:05;4.00;;;1.30;;
68858;SDS011;55864;49.238;8.092;2023-05-10T00:17:06;2.45;;;1.10;;
68858;SDS011;55864;49.238;8.092;2023-05-10T00:19:07;2.25;;;1.10;;
68858;SDS011;55864;49.238;8.092;2023-05-10T00:21:07;3.65;;;1.50;;
68858;SDS011;55864;49.238;8.092;2023-05-10T00:23:09;4.00;;;1.30;;
68858;SDS011;55864;49.238;8.092;2023-05-10T00:25:10;4.10;;;1.52;;
68858;SDS011;55864;49.238;8.092;2023-05-10T00:27:10;4.68;;;1.90;;
68858;SDS011;55864;49.238;8.092;2023-05-10T00:29:11;3.22;;;1.30;;
68858;SDS011;55864;49.238;8.092;2023-05-10T00:31:11;3.80;;;1.70;;
68858;SDS011;55864;49.238;8.092;2023-05-10T00:33:12;5.55;;;1.70;;
68858;SDS011;55864;49.238;8.092;2023-05-10T00:35:12;3.63;;;1.63;;
68858;SDS011;55864;49.238;8.092;2023-05-10T00:37:13;4.32;;;1.88;;
68858;SDS011;55864;49.238;8.092;2023-05-10T00:39:15;4.47;;;2.10;;
68858;SDS011;55864;49.238;8.092;2023-05-10T00:41:15;4.35;;;1.50;;
68858;SDS011;55864;49.238;8.092;2023-05-10T00:43:16;4.35;;;1.60;;
68858;SDS011;55864;49.238;8.092;2023-05-10T00:45:17;4.65;;;2.00;;
68858;SDS011;55864;49.238;8.092;2023-05-10T00:47:17;3.75;;;1.70;;
68858;SDS011;55864;49.238;8.092;2023-05-10T00:49:18;4.20;;;1.70;;
68858;SDS011;55864;49.238;8.092;2023-05-10T00:51:19;4.55;;;1.83;;
68858;SDS011;55864;49.238;8.092;2023-05-10T00:53:20;4.35;;;1.42;;
68858;SDS011;55864;49.238;8.092;2023-05-10T00:55:22;3.30;;;1.38;;
68858;SDS011;55864;49.238;8.092;2023-05-10T00:57:23;4.20;;;1.75;;
68858;SDS011;55864;49.238;8.092;2023-05-10T00:59:24;4.03;;;1.42;;
68858;SDS011;55864;49.238;8.092;2023-05-10T01:01:25;2.80;;;1.35;;
68858;SDS011;55864;49.238;8.092;2023-05-10T01:03:25;3.53;;;1.42;;
68858;SDS011;55864;49.238;8.092;2023-05-10T01:05:26;2.95;;;1.25;;
68858;SDS011;55864;49.238;8.092;2023-05-10T01:07:26;5.78;;;1.70;;
68858;SDS011;55864;49.238;8.092;2023-05-10T01:09:27;3.70;;;1.27;;
68858;SDS011;55864;49.238;8.092;2023-05-10T01:11:29;3.90;;;1.27;;
68858;SDS011;55864;49.238;8.092;2023-05-10T01:13:31;3.47;;;1.20;;
68858;SDS011;55864;49.238;8.092;2023-05-10T01:15:34;5.13;;;1.45;;
68858;SDS011;55864;49.238;8.092;2023-05-10T01:17:37;3.45;;;1.30;;
68858;SDS011;55864;49.238;8.092;2023-05-10T01:19:39;2.80;;;1.20;;
68858;SDS011;55864;49.238;8.092;2023-05-10T01:21:42;3.35;;;1.48;;
68858;SDS011;55864;49.238;8.092;2023-05-10T01:31:30;4.05;;;1.50;;
68858;SDS011;55864;49.238;8.092;2023-05-10T01:33:45;3.85;;;1.42;;
68858;SDS011;55864;49.238;8.092;2023-05-10T01:35:51;4.45;;;1.50;;
68858;SDS011;55864;49.238;8.092;2023-05-10T01:37:58;3.78;;;1.67;;
68858;SDS011;55864;49.238;8.092;2023-05-10T01:40:07;6.40;;;1.40;;
68858;SDS011;55864;49.238;8.092;2023-05-10T01:42:14;3.58;;;1.60;;
68858;SDS011;55864;49.238;8.092;2023-05-10T01:44:21;3.50;;;1.20;;
68858;SDS011;55864;49.238;8.092;2023-05-10T01:46:36;2.75;;;1.00;;
68858;SDS011;55864;49.238;8.092;2023-05-10T01:48:39;3.90;;;1.30;;
68858;SDS011;55864;49.238;8.092;2023-05-10T01:50:45;3.53;;;1.42;;
68858;SDS011;55864;49.238;8.092;2023-05-10T01:52:50;4.30;;;1.33;;
68858;SDS011;55864;49.238;8.092;2023-05-10T01:54:53;4.05;;;1.35;;
68858;SDS011;55864;49.238;8.092;2023-05-10T01:57:00;3.30;;;1.40;;
68858;SDS011;55864;49.238;8.092;2023-05-10T01:59:04;4.03;;;1.35;;
68858;SDS011;55864;49.238;8.092;2023-05-10T02:01:08;5.18;;;1.30;;
68858;SDS011;55864;49.238;8.092;2023-05-10T02:03:10;3.85;;;1.40;;
68858;SDS011;55864;49.238;8.092;2023-05-10T02:05:13;5.13;;;1.60;;
68858;SDS011;55864;49.238;8.092;2023-05-10T02:07:16;4.18;;;1.40;;
68858;SDS011;55864;49.238;8.092;2023-05-10T02:09:18;2.72;;;1.30;;
68858;SDS011;55864;49.238;8.092;2023-05-10T02:11:20;3.92;;;1.70;;
68858;SDS011;55864;49.238;8.092;2023-05-10T02:13:21;4.78;;;1.63;;
68858;SDS011;55864;49.238;8.092;2023-05-10T02:15:24;4.00;;;1.40;;
68858;SDS011;55864;49.238;8.092;2023-05-10T02:17:26;3.33;;;1.40;;
68858;SDS011;55864;49.238;8.092;2023-05-10T02:19:28;3.15;;;1.40;;
68858;SDS011;55864;49.238;8.092;2023-05-10T02:21:30;2.80;;;1.20;;
68858;SDS011;55864;49.238;8.092;2023-05-10T02:23:33;3.22;;;1.38;;
68858;SDS011;55864;49.238;8.092;2023-05-10T02:25:36;3.45;;;1.50;;
68858;SDS011;55864;49.238;8.092;2023-05-10T02:27:38;2.92;;;1.35;;
68858;SDS011;55864;49.238;8.092;2023-05-10T02:29:42;4.80;;;1.55;;
68858;SDS011;55864;49.238;8.092;2023-05-10T02:31:43;3.17;;;1.45;;
68858;SDS011;55864;49.238;8.092;2023-05-10T02:33:44;2.80;;;1.23;;
68858;SDS011;55864;49.238;8.092;2023-05-10T02:35:46;3.60;;;1.50;;
68858;SDS011;55864;49.238;8.092;2023-05-10T02:37:47;3.40;;;1.75;;
68858;SDS011;55864;49.238;8.092;2023-05-10T02:39:50;3.10;;;1.50;;
68858;SDS011;55864;49.238;8.092;2023-05-10T02:41:54;3.33;;;1.60;;
68858;SDS011;55864;49.238;8.092;2023-05-10T02:43:56;3.38;;;1.60;;
68858;SDS011;55864;49.238;8.092;2023-05-10T02:45:59;3.70;;;1.77;;
68858;SDS011;55864;49.238;8.092;2023-05-10T02:48:00;3.05;;;1.40;;
68858;SDS011;55864;49.238;8.092;2023-05-10T02:50:00;3.45;;;1.50;;
68858;SDS011;55864;49.238;8.092;2023-05-10T02:52:01;4.63;;;1.88;;
68858;SDS011;55864;49.238;8.092;2023-05-10T02:54:07;3.47;;;1.30;;
68858;SDS011;55864;49.238;8.092;2023-05-10T02:56:12;4.15;;;1.55;;
68858;SDS011;55864;49.238;8.092;2023-05-10T02:58:15;3.85;;;1.90;;
68858;SDS011;55864;49.238;8.092;2023-05-10T03:00:16;3.88;;;1.50;;
68858;SDS011;55864;49.238;8.092;2023-05-10T03:02:16;3.63;;;1.45;;
68858;SDS011;55864;49.238;8.092;2023-05-10T03:04:17;4.18;;;1.70;;
68858;SDS011;55864;49.238;8.092;2023-05-10T03:06:17;3.53;;;1.63;;
68858;SDS011;55864;49.238;8.092;2023-05-10T03:08:18;3.13;;;1.45;;
68858;SDS011;55864;49.238;8.092;2023-05-10T03:10:19;4.20;;;1.70;;
68858;SDS011;55864;49.238;8.092;2023-05-10T03:12:26;3.65;;;1.40;;
68858;SDS011;55864;49.238;8.092;2023-05-10T03:14:34;3.10;;;1.40;;
68858;SDS011;55864;49.238;8.092;2023-05-10T03:16:44;4.75;;;1.52;;
68858;SDS011;55864;49.238;8.092;2023-05-10T03:20:51;5.75;;;1.80;;
68858;SDS011;55864;49.238;8.092;2023-05-10T03:23:00;4.03;;;1.80;;
68858;SDS011;55864;49.238;8.092;2023-05-10T03:25:07;5.47;;;1.75;;
68858;SDS011;55864;49.238;8.092;2023-05-10T03:27:11;4.95;;;2.00;;
68858;SDS011;55864;49.238;8.092;2023-05-10T03:29:15;4.65;;;1.98;;
68858;SDS011;55864;49.238;8.092;2023-05-10T03:31:17;4.03;;;1.90;;
68858;SDS011;55864;49.238;8.092;2023-05-10T03:33:18;4.25;;;1.70;;
68858;SDS011;55864;49.238;8.092;2023-05-10T03:35:20;5.43;;;1.80;;
68858;SDS011;55864;49.238;8.092;2023-05-10T03:37:21;4.47;;;2.13;;
68858;SDS011;55864;49.238;8.092;2023-05-10T03:39:21;3.97;;;1.90;;
68858;SDS011;55864;49.238;8.092;2023-05-10T03:41:27;7.38;;;2.15;;
68858;SDS011;55864;49.238;8.092;2023-05-10T03:43:28;4.20;;;2.00;;
68858;SDS011;55864;49.238;8.092;2023-05-10T03:45:30;4.55;;;1.88;;
68858;SDS011;55864;49.238;8.092;2023-05-10T03:47:30;5.03;;;2.10;;
68858;SDS011;55864;49.238;8.092;2023-05-10T03:49:32;5.35;;;1.70;;
68858;SDS011;55864;49.238;8.092;2023-05-10T03:51:32;4.85;;;1.90;;
68858;SDS011;55864;49.238;8.092;2023-05-10T03:53:33;5.63;;;2.20;;
68858;SDS011;55864;49.238;8.092;2023-05-10T03:55:34;4.45;;;2.30;;
68858;SDS011;55864;49.238;8.092;2023-05-10T03:57:34;4.75;;;1.95;;
68858;SDS011;55864;49.238;8.092;2023-05-10T03:59:35;4.60;;;2.40;;
68858;SDS011;55864;49.238;8.092;2023-05-10T04:01:37;4.72;;;2.20;;
68858;SDS011;55864;49.238;8.092;2023-05-10T04:03:37;5.60;;;2.58;;
68858;SDS011;55864;49.238;8.092;2023-05-10T04:05:39;5.43;;;2.13;;
68858;SDS011;55864;49.238;8.092;2023-05-10T04:07:40;6.35;;;2.38;;
68858;SDS011;55864;49.238;8.092;2023-05-10T04:09:40;6.25;;;2.75;;
68858;SDS011;55864;49.238;8.092;2023-05-10T04:11:41;6.82;;;2.17;;
68858;SDS011;55864;49.238;8.092;2023-05-10T04:13:41;6.35;;;2.45;;
68858;SDS011;55864;49.238;8.092;2023-05-10T04:15:42;5.32;;;2.50;;
68858;SDS011;55864;49.238;8.092;2023-05-10T04:17:44;6.22;;;2.72;;
68858;SDS011;55864;49.238;8.092;2023-05-10T04:19:44;6.78;;;2.60;;
68858;SDS011;55864;49.238;8.092;2023-05-10T04:21:45;6.32;;;2.40;;
68858;SDS011;55864;49.238;8.092;2023-05-10T04:23:46;6.30;;;2.67;;
68858;SDS011;55864;49.238;8.092;2023-05-10T04:25:46;6.47;;;2.55;;
68858;SDS011;55864;49.238;8.092;2023-05-10T04:27:47;6.82;;;2.50;;
68858;SDS011;55864;49.238;8.092;2023-05-10T04:29:48;5.20;;;2.60;;
68858;SDS011;55864;49.238;8.092;2023-05-10T04:31:48;4.90;;;2.30;;
68858;SDS011;55864;49.238;8.092;2023-05-10T04:33:50;5.90;;;2.30;;
68858;SDS011;55864;49.238;8.092;2023-05-10T04:35:51;6.60;;;2.80;;
68858;SDS011;55864;49.238;8.092;2023-05-10T04:37:51;5.40;;;2.60;;
68858;SDS011;55864;49.238;8.092;2023-05-10T04:39:52;6.95;;;2.60;;
68858;SDS011;55864;49.238;8.092;2023-05-10T04:41:52;6.05;;;3.03;;
68858;SDS011;55864;49.238;8.092;2023-05-10T04:43:53;6.00;;;2.83;;
68858;SDS011;55864;49.238;8.092;2023-05-10T04:45:55;5.90;;;2.83;;
68858;SDS011;55864;49.238;8.092;2023-05-10T04:47:56;5.78;;;2.85;;
68858;SDS011;55864;49.238;8.092;2023-05-10T04:49:58;5.57;;;2.65;;
68858;SDS011;55864;49.238;8.092;2023-05-10T04:51:59;5.90;;;2.90;;
68858;SDS011;55864;49.238;8.092;2023-05-10T04:53:59;5.28;;;2.60;;
68858;SDS011;55864;49.238;8.092;2023-05-10T04:56:00;5.32;;;2.47;;
68858;SDS011;55864;49.238;8.092;2023-05-10T04:58:00;5.97;;;2.83;;
68858;SDS011;55864;49.238;8.092;2023-05-10T05:00:01;8.00;;;2.85;;
68858;SDS011;55864;49.238;8.092;2023-05-10T05:02:01;6.68;;;3.13;;
68858;SDS011;55864;49.238;8.092;2023-05-10T05:04:02;4.90;;;2.35;;
68858;SDS011;55864;49.238;8.092;2023-05-10T05:06:05;4.70;;;2.70;;
68858;SDS011;55864;49.238;8.092;2023-05-10T05:08:05;5.13;;;2.47;;
68858;SDS011;55864;49.238;8.092;2023-05-10T05:10:06;7.07;;;2.75;;
68858;SDS011;55864;49.238;8.092;2023-05-10T05:12:08;5.43;;;3.03;;
68858;SDS011;55864;49.238;8.092;2023-05-10T05:14:08;6.00;;;2.55;;
68858;SDS011;55864;49.238;8.092;2023-05-10T05:16:09;4.93;;;2.50;;
68858;SDS011;55864;49.238;8.092;2023-05-10T05:18:10;7.45;;;3.20;;
68858;SDS011;55864;49.238;8.092;2023-05-10T05:20:10;5.72;;;2.88;;
68858;SDS011;55864;49.238;8.092;2023-05-10T05:22:12;5.82;;;3.17;;
68858;SDS011;55864;49.238;8.092;2023-05-10T05:24:13;6.28;;;3.00;;
68858;SDS011;55864;49.238;8.092;2023-05-10T05:26:13;6.72;;;2.72;;
68858;SDS011;55864;49.238;8.092;2023-05-10T05:28:14;6.32;;;2.85;;
68858;SDS011;55864;49.238;8.092;2023-05-10T05:30:15;5.00;;;2.78;;
68858;SDS011;55864;49.238;8.092;2023-05-10T05:32:15;5.38;;;2.70;;
68858;SDS011;55864;49.238;8.092;2023-05-10T05:34:16;6.45;;;2.35;;
68858;SDS011;55864;49.238;8.092;2023-05-10T05:36:16;5.88;;;2.70;;
68858;SDS011;55864;49.238;8.092;2023-05-10T05:38:18;7.38;;;2.20;;
68858;SDS011;55864;49.238;8.092;2023-05-10T05:40:22;4.88;;;2.33;;
68858;SDS011;55864;49.238;8.092;2023-05-10T05:42:23;4.82;;;2.33;;
68858;SDS011;55864;49.238;8.092;2023-05-10T05:44:23;5.22;;;2.28;;
68858;SDS011;55864;49.238;8.092;2023-05-10T05:46:24;5.07;;;2.22;;
68858;SDS011;55864;49.238;8.092;2023-05-10T05:48:24;4.97;;;2.10;;
68858;SDS011;55864;49.238;8.092;2023-05-10T05:50:25;5.75;;;2.25;;
68858;SDS011;55864;49.238;8.092;2023-05-10T05:52:25;5.68;;;2.08;;
68858;SDS011;55864;49.238;8.092;2023-05-10T05:54:27;4.63;;;2.35;;
68858;SDS011;55864;49.238;8.092;2023-05-10T05:56:28;4.60;;;2.00;;
68858;SDS011;55864;49.238;8.092;2023-05-10T05:58:29;5.10;;;2.42;;
68858;SDS011;55864;49.238;8.092;2023-05-10T06:00:29;4.63;;;2.22;;
68858;SDS011;55864;49.238;8.092;2023-05-10T06:02:30;4.43;;;2.05;;
68858;SDS011;55864;49.238;8.092;2023-05-10T06:04:30;4.82;;;2.08;;
68858;SDS011;55864;49.238;8.092;2023-05-10T06:06:31;5.05;;;2.30;;
68858;SDS011;55864;49.238;8.092;2023-05-10T06:08:31;5.55;;;2.03;;
68858;SDS011;55864;49.238;8.092;2023-05-10T06:10:33;8.25;;;2.20;;
68858;SDS011;55864;49.238;8.092;2023-05-10T06:12:34;4.90;;;2.25;;
68858;SDS011;55864;49.238;8.092;2023-05-10T06:14:34;5.40;;;2.10;;
68858;SDS011;55864;49.238;8.092;2023-05-10T06:16:35;4.72;;;2.30;;
68858;SDS011;55864;49.238;8.092;2023-05-10T06:18:35;4.90;;;2.60;;
68858;SDS011;55864;49.238;8.092;2023-05-10T06:20:36;5.28;;;2.50;;
68858;SDS011;55864;49.238;8.092;2023-05-10T06:22:37;5.28;;;2.28;;
68858;SDS011;55864;49.238;8.092;2023-05-10T06:24:37;4.32;;;2.10;;
68858;SDS011;55864;49.238;8.092;2023-05-10T06:26:39;4.60;;;2.05;;
68858;SDS011;55864;49.238;8.092;2023-05-10T06:28:40;4.97;;;2.25;;
68858;SDS011;55864;49.238;8.092;2023-05-10T06:30:40;6.53;;;3.85;;
68858;SDS011;55864;49.238;8.092;2023-05-10T06:32:41;4.70;;;1.85;;
68858;SDS011;55864;49.238;8.092;2023-05-10T06:34:41;5.35;;;1.90;;
68858;SDS011;55864;49.238;8.092;2023-05-10T06:36:42;4.40;;;2.00;;
68858;SDS011;55864;49.238;8.092;2023-05-10T06:38:42;4.30;;;1.88;;
68858;SDS011;55864;49.238;8.092;2023-05-10T06:40:43;5.22;;;2.10;;
68858;SDS011;55864;49.238;8.092;2023-05-10T06:42:45;4.80;;;2.13;;
68858;SDS011;55864;49.238;8.092;2023-05-10T06:44:46;4.72;;;1.70;;
68858;SDS011;55864;49.238;8.092;2023-05-10T06:46:46;5.18;;;1.90;;
68858;SDS011;55864;49.238;8.092;2023-05-10T06:48:47;4.25;;;2.00;;
68858;SDS011;55864;49.238;8.092;2023-05-10T06:50:47;3.92;;;1.60;;
68858;SDS011;55864;49.238;8.092;2023-05-10T06:52:48;4.15;;;1.88;;
68858;SDS011;55864;49.238;8.092;2023-05-10T06:54:48;4.25;;;1.80;;
68858;SDS011;55864;49.238;8.092;2023-05-10T06:56:49;4.72;;;1.90;;
68858;SDS011;55864;49.238;8.092;2023-05-10T06:58:51;4.50;;;1.88;;
68858;SDS011;55864;49.238;8.092;2023-05-10T07:00:51;4.80;;;1.95;;
68858;SDS011;55864;49.238;8.092;2023-05-10T07:02:52;5.03;;;1.90;;
68858;SDS011;55864;49.238;8.092;2023-05-10T07:04:52;4.22;;;2.00;;
68858;SDS011;55864;49.238;8.092;2023-05-10T07:06:53;4.53;;;2.25;;
68858;SDS011;55864;49.238;8.092;2023-05-10T07:08:53;5.20;;;2.00;;
68858;SDS011;55864;49.238;8.092;2023-05-10T07:10:58;5.75;;;2.20;;
68858;SDS011;55864;49.238;8.092;2023-05-10T07:12:59;4.55;;;2.00;;
68858;SDS011;55864;49.238;8.092;2023-05-10T07:15:01;4.75;;;2.00;;
68858;SDS011;55864;49.238;8.092;2023-05-10T07:17:02;4.50;;;1.77;;
68858;SDS011;55864;49.238;8.092;2023-05-10T07:19:03;4.28;;;1.83;;
68858;SDS011;55864;49.238;8.092;2023-05-10T07:21:04;4.30;;;1.90;;
68858;SDS011;55864;49.238;8.092;2023-05-10T07:23:04;4.25;;;1.98;;
68858;SDS011;55864;49.238;8.092;2023-05-10T07:25:05;4.80;;;2.00;;
68858;SDS011;55864;49.238;8.092;2023-05-10T07:27:06;6.07;;;2.03;;
68858;SDS011;55864;49.238;8.092;2023-05-10T07:29:07;5.28;;;1.73;;
68858;SDS011;55864;49.238;8.092;2023-05-10T07:31:09;5.75;;;2.20;;
68858;SDS011;55864;49.238;8.092;2023-05-10T07:33:10;5.63;;;1.90;;
68858;SDS011;55864;49.238;8.092;2023-05-10T07:35:12;5.33;;;1.87;;
68858;SDS011;55864;49.238;8.092;2023-05-10T07:37:13;5.03;;;1.95;;
68858;SDS011;55864;49.238;8.092;2023-05-10T07:39:13;4.93;;;1.85;;
68858;SDS011;55864;49.238;8.092;2023-05-10T07:41:14;5.20;;;1.80;;
68858;SDS011;55864;49.238;8.092;2023-05-10T07:43:14;4.15;;;1.83;;
68858;SDS011;55864;49.238;8.092;2023-05-10T07:45:15;3.80;;;1.75;;
68858;SDS011;55864;49.238;8.092;2023-05-10T07:47:17;6.15;;;2.10;;
68858;SDS011;55864;49.238;8.092;2023-05-10T07:49:17;3.85;;;1.80;;
68858;SDS011;55864;49.238;8.092;2023-05-10T07:51:18;4.00;;;1.80;;
68858;SDS011;55864;49.238;8.092;2023-05-10T07:53:18;4.28;;;1.77;;
68858;SDS011;55864;49.238;8.092;2023-05-10T07:55:19;4.00;;;1.90;;
68858;SDS011;55864;49.238;8.092;2023-05-10T07:57:20;3.85;;;1.83;;
68858;SDS011;55864;49.238;8.092;2023-05-10T07:59:20;4.70;;;1.65;;
68858;SDS011;55864;49.238;8.092;2023-05-10T08:01:21;6.80;;;2.13;;
68858;SDS011;55864;49.238;8.092;2023-05-10T08:03:23;3.70;;;1.70;;
68858;SDS011;55864;49.238;8.092;2023-05-10T08:05:23;4.88;;;2.00;;
68858;SDS011;55864;49.238;8.092;2023-05-10T08:07:24;5.25;;;2.00;;
68858;SDS011;55864;49.238;8.092;2023-05-10T08:09:24;4.40;;;1.50;;
68858;SDS011;55864;49.238;8.092;2023-05-10T08:11:25;3.60;;;1.75;;
68858;SDS011;55864;49.238;8.092;2023-05-10T08:13:25;3.90;;;1.70;;
68858;SDS011;55864;49.238;8.092;2023-05-10T08:15:26;4.30;;;1.73;;
68858;SDS011;55864;49.238;8.092;2023-05-10T08:17:27;4.53;;;2.03;;
68858;SDS011;55864;49.238;8.092;2023-05-10T08:19:29;3.63;;;1.70;;
68858;SDS011;55864;49.238;8.092;2023-05-10T08:21:30;3.50;;;1.50;;
68858;SDS011;55864;49.238;8.092;2023-05-10T08:23:30;3.97;;;1.70;;
68858;SDS011;55864;49.238;8.092;2023-05-10T08:25:31;4.18;;;1.80;;
68858;SDS011;55864;49.238;8.092;2023-05-10T08:27:31;5.40;;;1.80;;
68858;SDS011;55864;49.238;8.092;2023-05-10T08:29:32;4.10;;;1.65;;
68858;SDS011;55864;49.238;8.092;2023-05-10T08:31:32;4.28;;;1.60;;
68858;SDS011;55864;49.238;8.092;2023-05-10T08:33:33;4.50;;;1.83;;
68858;SDS011;55864;49.238;8.092;2023-05-10T08:35:35;4.45;;;1.70;;
68858;SDS011;55864;49.238;8.092;2023-05-10T08:37:35;4.68;;;1.60;;
68858;SDS011;55864;49.238;8.092;2023-05-10T08:39:36;6.88;;;1.70;;
68858;SDS011;55864;49.238;8.092;2023-05-10T08:41:37;3.38;;;1.42;;
68858;SDS011;55864;49.238;8.092;2023-05-10T08:43:39;3.63;;;1.52;;
68858;SDS011;55864;49.238;8.092;2023-05-10T08:45:40;4.93;;;1.58;;
68858;SDS011;55864;49.238;8.092;2023-05-10T08:47:41;3.63;;;1.58;;
68858;SDS011;55864;49.238;8.092;2023-05-10T08:49:42;3.97;;;1.70;;
68858;SDS011;55864;49.238;8.092;2023-05-10T08:51:49;3.60;;;1.60;;
68858;SDS011;55864;49.238;8.092;2023-05-10T08:53:51;3.38;;;1.40;;
68858;SDS011;55864;49.238;8.092;2023-05-10T08:55:52;4.30;;;1.50;;
68858;SDS011;55864;49.238;8.092;2023-05-10T08:57:53;3.28;;;1.50;;
68858;SDS011;55864;49.238;8.092;2023-05-10T08:59:54;3.95;;;1.63;;
68858;SDS011;55864;49.238;8.092;2023-05-10T09:01:55;3.78;;;1.77;;
68858;SDS011;55864;49.238;8.092;2023-05-10T09:03:57;3.35;;;1.50;;
68858;SDS011;55864;49.238;8.092;2023-05-10T09:05:58;3.08;;;1.40;;
68858;SDS011;55864;49.238;8.092;2023-05-10T09:08:00;3.30;;;1.50;;
68858;SDS011;55864;49.238;8.092;2023-05-10T09:10:01;8.13;;;1.50;;
68858;SDS011;55864;49.238;8.092;2023-05-10T09:12:03;4.28;;;1.80;;
68858;SDS011;55864;49.238;8.092;2023-05-10T09:14:08;5.00;;;1.88;;
68858;SDS011;55864;49.238;8.092;2023-05-10T09:16:09;4.95;;;1.65;;
68858;SDS011;55864;49.238;8.092;2023-05-10T09:18:10;3.90;;;1.45;;
68858;SDS011;55864;49.238;8.092;2023-05-10T09:20:10;2.63;;;1.30;;
68858;SDS011;55864;49.238;8.092;2023-05-10T09:22:11;3.90;;;1.60;;
68858;SDS011;55864;49.238;8.092;2023-05-10T09:24:13;3.47;;;1.50;;
68858;SDS011;55864;49.238;8.092;2023-05-10T09:26:13;3.63;;;1.50;;
68858;SDS011;55864;49.238;8.092;2023-05-10T09:28:14;4.10;;;1.70;;
68858;SDS011;55864;49.238;8.092;2023-05-10T09:30:15;6.88;;;2.08;;
68858;SDS011;55864;49.238;8.092;2023-05-10T09:32:17;3.92;;;1.50;;
68858;SDS011;55864;49.238;8.092;2023-05-10T09:34:18;3.67;;;1.50;;
68858;SDS011;55864;49.238;8.092;2023-05-10T09:36:19;4.57;;;1.65;;
68858;SDS011;55864;49.238;8.092;2023-05-10T09:38:19;4.53;;;1.73;;
68858;SDS011;55864;49.238;8.092;2023-05-10T09:40:22;4.55;;;1.50;;
68858;SDS011;55864;49.238;8.092;2023-05-10T09:42:24;3.65;;;1.60;;
68858;SDS011;55864;49.238;8.092;2023-05-10T09:44:25;3.78;;;1.45;;
68858;SDS011;55864;49.238;8.092;2023-05-10T09:46:26;3.85;;;1.60;;
68858;SDS011;55864;49.238;8.092;2023-05-10T09:48:26;5.60;;;1.50;;
68858;SDS011;55864;49.238;8.092;2023-05-10T09:50:27;4.15;;;1.75;;
68858;SDS011;55864;49.238;8.092;2023-05-10T09:52:29;4.22;;;2.25;;
68858;SDS011;55864;49.238;8.092;2023-05-10T09:54:30;2.97;;;1.30;;
68858;SDS011;55864;49.238;8.092;2023-05-10T09:56:35;4.75;;;1.40;;
68858;SDS011;55864;49.238;8.092;2023-05-10T09:58:36;6.43;;;1.52;;
68858;SDS011;55864;49.238;8.092;2023-05-10T10:00:38;3.38;;;1.50;;
68858;SDS011;55864;49.238;8.092;2023-05-10T10:02:39;3.40;;;1.42;;
68858;SDS011;55864;49.238;8.092;2023-05-10T10:04:41;4.63;;;1.50;;
68858;SDS011;55864;49.238;8.092;2023-05-10T10:06:45;4.60;;;1.70;;
68858;SDS011;55864;49.238;8.092;2023-05-10T10:08:45;6.78;;;1.83;;
68858;SDS011;55864;49.238;8.092;2023-05-10T10:10:46;5.05;;;1.70;;
68858;SDS011;55864;49.238;8.092;2023-05-10T10:12:48;5.32;;;1.60;;
68858;SDS011;55864;49.238;8.092;2023-05-10T10:14:49;6.43;;;2.15;;
68858;SDS011;55864;49.238;8.092;2023-05-10T10:16:51;6.60;;;1.50;;
68858;SDS011;55864;49.238;8.092;2023-05-10T10:18:52;4.57;;;1.60;;
68858;SDS011;55864;49.238;8.092;2023-05-10T10:20:53;5.22;;;1.90;;
68858;SDS011;55864;49.238;8.092;2023-05-10T10:22:55;5.20;;;1.40;;
68858;SDS011;55864;49.238;8.092;2023-05-10T10:24:55;5.68;;;1.75;;
68858;SDS011;55864;49.238;8.092;2023-05-10T10:26:57;8.88;;;4.40;;
68858;SDS011;55864;49.238;8.092;2023-05-10T10:29:05;7.70;;;3.00;;
68858;SDS011;55864;49.238;8.092;2023-05-10T10:31:17;6.25;;;2.35;;
68858;SDS011;55864;49.238;8.092;2023-05-10T10:33:48;5.85;;;2.08;;
68858;SDS011;55864;49.238;8.092;2023-05-10T10:35:57;7.00;;;2.10;;
68858;SDS011;55864;49.238;8.092;2023-05-10T10:38:00;4.65;;;1.83;;
68858;SDS011;55864;49.238;8.092;2023-05-10T10:40:00;8.15;;;2.00;;
68858;SDS011;55864;49.238;8.092;2023-05-10T10:44:45;5.78;;;2.58;;
68858;SDS011;55864;49.238;8.092;2023-05-10T10:46:59;5.50;;;2.03;;
68858;SDS011;55864;49.238;8.092;2023-05-10T10:49:08;4.93;;;2.08;;
68858;SDS011;55864;49.238;8.092;2023-05-10T10:51:09;8.13;;;2.50;;
68858;SDS011;55864;49.238;8.092;2023-05-10T10:53:10;9.95;;;4.00;;
68858;SDS011;55864;49.238;8.092;2023-05-10T10:55:11;7.55;;;3.25;;
68858;SDS011;55864;49.238;8.092;2023-05-10T10:57:13;8.30;;;2.90;;
68858;SDS011;55864;49.238;8.092;2023-05-10T10:59:19;10.73;;;4.40;;
68858;SDS011;55864;49.238;8.092;2023-05-10T11:01:32;12.95;;;5.88;;
68858;SDS011;55864;49.238;8.092;2023-05-10T11:03:33;10.20;;;3.35;;
68858;SDS011;55864;49.238;8.092;2023-05-10T11:05:35;15.93;;;6.35;;
68858;SDS011;55864;49.238;8.092;2023-05-10T11:07:37;11.23;;;4.40;;
68858;SDS011;55864;49.238;8.092;2023-05-10T11:09:51;14.20;;;5.43;;
68858;SDS011;55864;49.238;8.092;2023-05-10T11:11:52;6.07;;;2.15;;
68858;SDS011;55864;49.238;8.092;2023-05-10T11:13:54;11.32;;;3.95;;
68858;SDS011;55864;49.238;8.092;2023-05-10T11:16:10;6.40;;;2.28;;
68858;SDS011;55864;49.238;8.092;2023-05-10T11:18:19;9.73;;;3.20;;
68858;SDS011;55864;49.238;8.092;2023-05-10T11:20:20;16.35;;;5.55;;
68858;SDS011;55864;49.238;8.092;2023-05-10T11:22:28;16.10;;;5.90;;
68858;SDS011;55864;49.238;8.092;2023-05-10T11:24:40;9.60;;;3.20;;
68858;SDS011;55864;49.238;8.092;2023-05-10T11:27:03;8.60;;;3.40;;
68858;SDS011;55864;49.238;8.092;2023-05-10T11:29:05;10.00;;;3.38;;
68858;SDS011;55864;49.238;8.092;2023-05-10T11:31:06;12.05;;;4.28;;
68858;SDS011;55864;49.238;8.092;2023-05-10T11:33:08;10.63;;;3.80;;
68858;SDS011;55864;49.238;8.092;2023-05-10T11:35:10;8.50;;;2.97;;
68858;SDS011;55864;49.238;8.092;2023-05-10T11:37:14;9.85;;;3.08;;
68858;SDS011;55864;49.238;8.092;2023-05-10T11:39:14;8.88;;;3.25;;
68858;SDS011;55864;49.238;8.092;2023-05-10T11:41:16;6.03;;;2.05;;
68858;SDS011;55864;49.238;8.092;2023-05-10T11:43:18;7.22;;;2.85;;
68858;SDS011;55864;49.238;8.092;2023-05-10T11:45:19;7.68;;;2.80;;
68858;SDS011;55864;49.238;8.092;2023-05-10T11:47:19;6.90;;;1.90;;
68858;SDS011;55864;49.238;8.092;2023-05-10T11:49:20;10.95;;;3.30;;
68858;SDS011;55864;49.238;8.092;2023-05-10T11:51:25;8.35;;;2.95;;
68858;SDS011;55864;49.238;8.092;2023-05-10T11:53:26;8.20;;;2.50;;
68858;SDS011;55864;49.238;8.092;2023-05-10T11:55:26;7.55;;;2.60;;
68858;SDS011;55864;49.238;8.092;2023-05-10T11:57:27;6.50;;;2.83;;
68858;SDS011;55864;49.238;8.092;2023-05-10T11:59:27;7.65;;;2.70;;
68858;SDS011;55864;49.238;8.092;2023-05-10T12:01:28;10.70;;;3.28;;
68858;SDS011;55864;49.238;8.092;2023-05-10T12:03:29;11.38;;;3.20;;
68858;SDS011;55864;49.238;8.092;2023-05-10T12:05:31;7.18;;;2.70;;
68858;SDS011;55864;49.238;8.092;2023-05-10T12:07:34;12.67;;;4.20;;
68858;SDS011;55864;49.238;8.092;2023-05-10T12:09:34;8.32;;;3.42;;
68858;SDS011;55864;49.238;8.092;2023-05-10T12:11:36;13.40;;;4.50;;
68858;SDS011;55864;49.238;8.092;2023-05-10T12:13:38;35.33;;;8.95;;
68858;SDS011;55864;49.238;8.092;2023-05-10T12:15:40;72.72;;;17.13;;
68858;SDS011;55864;49.238;8.092;2023-05-10T12:17:40;49.53;;;12.05;;
68858;SDS011;55864;49.238;8.092;2023-05-10T12:19:41;62.38;;;14.98;;
68858;SDS011;55864;49.238;8.092;2023-05-10T12:21:42;40.03;;;10.77;;
68858;SDS011;55864;49.238;8.092;2023-05-10T12:23:46;14.13;;;5.32;;
68858;SDS011;55864;49.238;8.092;2023-05-10T12:25:47;9.55;;;3.78;;